createdAt,value
2019-01-24T00:00:31.219Z,97.90
2019-01-24T00:03:00.381Z,93.97
2019-01-24T00:05:29.644Z,100.20
2019-01-24T00:07:58.636Z,93.90
2019-01-24T00:10:27.683Z,93.03
2019-01-24T00:12:56.804Z,105.37
2019-01-24T00:15:25.705Z,100.20
2019-01-24T00:17:54.696Z,99.57
2019-01-24T00:20:24.023Z,102.83
2019-01-24T00:22:53.247Z,97.47
2019-01-24T00:25:22.213Z,104.50
2019-01-24T00:27:51.166Z,105.37
2019-01-24T00:30:19.978Z,106.20
2019-01-24T00:32:48.802Z,108.00
2019-01-24T00:35:18.153Z,105.57
2019-01-24T00:37:47.033Z,104.07
2019-01-24T00:40:17.641Z,99.07
2019-01-24T00:42:46.632Z,99.83
2019-01-24T00:45:15.624Z,91.60
2019-01-24T00:47:44.785Z,91.47
2019-01-24T00:50:13.794Z,92.63
2019-01-24T00:52:42.743Z,92.67
2019-01-24T00:55:12.715Z,91.30
2019-01-24T00:57:41.719Z,92.43
2019-01-24T01:00:19.711Z,94.43
2019-01-24T01:02:48.599Z,92.70
2019-01-24T01:05:17.571Z,99.67
2019-01-24T01:07:46.370Z,98.13
2019-01-24T01:10:15.587Z,98.23
2019-01-24T01:12:44.599Z,98.57
2019-01-24T01:15:15.446Z,102.43
2019-01-24T01:17:44.514Z,103.20
2019-01-24T01:20:33.020Z,98.93
2019-01-24T01:23:01.932Z,98.83
2019-01-24T01:25:31.188Z,98.70
2019-01-24T01:28:00.058Z,103.47
2019-01-24T01:30:28.851Z,101.70
2019-01-24T01:32:57.885Z,98.47
2019-01-24T01:35:26.879Z,97.50
2019-01-24T01:37:55.832Z,94.40
2019-01-24T01:40:24.635Z,91.73
2019-01-24T01:42:53.522Z,92.67
2019-01-24T01:45:22.966Z,94.37
2019-01-24T01:47:51.894Z,95.10
2019-01-24T01:50:22.910Z,94.90
2019-01-24T01:52:51.704Z,94.33
2019-01-24T01:55:20.615Z,100.90
2019-01-24T01:57:50.239Z,103.03
2019-01-24T02:00:21.038Z,104.33
2019-01-24T02:02:49.904Z,99.10
2019-01-24T02:05:18.863Z,99.87
2019-01-24T02:07:47.754Z,100.77
2019-01-24T02:10:18.801Z,100.53
2019-01-24T02:12:47.788Z,101.17
2019-01-24T02:15:16.810Z,101.20
2019-01-24T02:17:45.765Z,101.17
2019-01-24T02:20:19.568Z,96.73
2019-01-24T02:22:48.538Z,94.43
2019-01-24T02:25:17.384Z,94.57
2019-01-24T02:27:46.245Z,94.70
2019-01-24T02:30:23.722Z,91.70
2019-01-24T02:32:52.629Z,90.47
2019-01-24T02:35:21.594Z,94.90
2019-01-24T02:37:50.558Z,91.40
2019-01-24T02:40:19.477Z,91.37
2019-01-24T02:42:48.352Z,96.47
2019-01-24T02:45:18.506Z,102.33
2019-01-24T02:47:47.398Z,99.57
2019-01-24T02:50:17.975Z,103.77
2019-01-24T02:52:46.939Z,99.37
2019-01-24T02:55:15.996Z,101.20
2019-01-24T02:57:44.863Z,99.23
2019-01-24T03:00:18.815Z,96.77
2019-01-24T03:02:47.841Z,98.37
2019-01-24T03:05:18.496Z,99.13
2019-01-24T03:07:47.354Z,97.90
2019-01-24T03:10:16.320Z,98.77
2019-01-24T03:12:45.223Z,98.57
2019-01-24T03:15:16.003Z,97.40
2019-01-24T03:17:44.953Z,92.10
2019-01-24T03:20:14.424Z,94.50
2019-01-24T03:22:43.403Z,93.87
2019-01-24T03:25:12.451Z,96.17
2019-01-24T03:27:41.843Z,93.30
2019-01-24T03:30:13.325Z,100.17
2019-01-24T03:32:42.184Z,105.00
2019-01-24T03:35:13.626Z,104.63
2019-01-24T03:37:42.607Z,103.53
2019-01-24T03:40:12.511Z,106.63
2019-01-24T03:42:41.374Z,104.13
2019-01-24T03:45:11.908Z,110.30
2019-01-24T03:47:40.782Z,107.83
2019-01-24T03:50:12.403Z,109.70
2019-01-24T03:52:41.321Z,109.83
2019-01-24T03:55:10.653Z,109.30
2019-01-24T03:57:39.643Z,108.07
2019-01-24T04:00:11.964Z,109.27
2019-01-24T04:02:40.886Z,107.47
2019-01-24T04:05:12.027Z,102.63
2019-01-24T04:07:40.430Z,103.30
2019-01-24T04:10:11.842Z,104.10
2019-01-24T04:12:40.772Z,105.00
2019-01-24T04:15:11.562Z,104.40
2019-01-24T04:17:40.520Z,102.90
2019-01-24T04:20:09.407Z,98.33
2019-01-24T04:22:38.828Z,100.60
2019-01-24T04:25:07.891Z,104.27
2019-01-24T04:27:36.787Z,107.97
2019-01-24T04:30:07.482Z,114.43
2019-01-24T04:32:36.524Z,113.13
2019-01-24T04:35:05.782Z,107.60
2019-01-24T04:37:34.723Z,110.53
2019-01-24T04:40:03.552Z,108.97
2019-01-24T04:42:32.355Z,111.43
2019-01-24T04:45:01.417Z,106.23
2019-01-24T04:47:31.135Z,105.70
2019-01-24T04:50:00.191Z,105.50
2019-01-24T04:52:29.049Z,106.50
2019-01-24T04:54:57.974Z,107.93
2019-01-24T04:57:26.927Z,105.90
2019-01-24T04:59:55.980Z,101.43
2019-01-24T05:02:24.936Z,108.43
2019-01-24T05:04:53.893Z,110.07
2019-01-24T05:07:22.878Z,100.77
2019-01-24T05:09:51.740Z,106.27
2019-01-24T05:12:20.650Z,102.03
2019-01-24T05:14:49.555Z,103.17
2019-01-24T05:17:18.674Z,101.20
2019-01-24T05:19:47.504Z,107.50
2019-01-24T05:22:16.585Z,105.73
2019-01-24T05:24:45.489Z,106.20
2019-01-24T05:27:14.395Z,114.13
2019-01-24T05:29:43.264Z,105.07
2019-01-24T05:32:12.245Z,104.97
2019-01-24T05:34:41.014Z,100.90
2019-01-24T05:37:09.840Z,99.60
2019-01-24T05:39:38.813Z,101.60
2019-01-24T05:42:07.732Z,100.37
2019-01-24T05:44:36.485Z,98.90
2019-01-24T05:47:05.396Z,99.20
2019-01-24T05:49:34.188Z,94.83
2019-01-24T05:52:03.045Z,92.20
2019-01-24T05:54:32.007Z,88.50
2019-01-24T05:57:01.571Z,94.00
2019-01-24T05:59:30.610Z,90.87
2019-01-24T06:02:00.105Z,92.03
2019-01-24T06:04:29.061Z,91.93
2019-01-24T06:06:57.956Z,90.80
2019-01-24T06:09:26.893Z,93.17
2019-01-24T06:11:55.774Z,93.53
2019-01-24T06:14:24.774Z,96.57
2019-01-24T06:16:53.559Z,92.73
2019-01-24T06:19:22.845Z,97.07
2019-01-24T06:21:51.747Z,95.67
2019-01-24T06:24:20.795Z,92.57
2019-01-24T06:26:49.672Z,93.17
2019-01-24T06:29:18.599Z,92.70
2019-01-24T06:31:47.544Z,98.03
2019-01-24T06:34:16.408Z,100.57
2019-01-24T06:36:45.218Z,94.90
2019-01-24T06:39:14.280Z,101.40
2019-01-24T06:41:43.306Z,102.67
2019-01-24T06:44:12.092Z,103.87
2019-01-24T06:46:41.178Z,101.80
2019-01-24T06:49:10.137Z,103.03
2019-01-24T06:51:38.943Z,112.47
2019-01-24T06:54:07.837Z,114.97
2019-01-24T06:56:36.931Z,113.67
2019-01-24T06:59:05.786Z,111.27
2019-01-24T07:01:34.589Z,97.17
2019-01-24T07:04:03.619Z,97.60
2019-01-24T07:06:32.499Z,95.80
2019-01-24T07:09:01.567Z,100.83
2019-01-24T07:11:30.748Z,100.70
2019-01-24T07:13:59.693Z,101.37
2019-01-24T07:16:28.605Z,105.43
2019-01-24T07:18:57.575Z,112.30
2019-01-24T07:21:26.419Z,113.47
2019-01-24T07:23:55.400Z,111.77
2019-01-24T07:26:24.238Z,107.10
2019-01-24T07:28:53.260Z,106.77
2019-01-24T07:31:22.296Z,116.10
2019-01-24T07:33:51.240Z,111.90
2019-01-24T07:36:20.108Z,112.47
2019-01-24T07:38:49.037Z,112.93
2019-01-24T07:41:17.991Z,117.40
2019-01-24T07:43:46.836Z,115.63
2019-01-24T07:46:15.796Z,106.40
2019-01-24T07:48:44.587Z,111.47
2019-01-24T07:51:13.535Z,100.07
2019-01-24T07:53:42.500Z,105.90
2019-01-24T07:56:11.396Z,104.77
2019-01-24T07:58:40.330Z,104.83
2019-01-24T08:01:09.382Z,114.23
2019-01-24T08:03:38.266Z,115.63
2019-01-24T08:06:09.189Z,115.30
2019-01-24T08:08:37.909Z,113.03
2019-01-24T08:11:06.763Z,107.83
2019-01-24T08:13:35.884Z,115.70
2019-01-24T08:16:04.921Z,113.53
2019-01-24T08:18:33.848Z,109.43
2019-01-24T08:21:02.803Z,115.63
2019-01-24T08:23:32.211Z,113.93
2019-01-24T08:26:01.086Z,112.80
2019-01-24T08:28:30.084Z,117.00
2019-01-24T08:30:59.870Z,115.70
2019-01-24T08:33:29.122Z,106.33
2019-01-24T08:35:57.920Z,116.57
2019-01-24T08:38:27.139Z,123.00
2019-01-24T08:40:56.012Z,117.27
2019-01-24T08:43:25.077Z,100.23
2019-01-24T08:45:53.940Z,106.93
2019-01-24T08:48:23.924Z,109.80
2019-01-24T08:50:52.920Z,129.87
2019-01-24T08:53:21.836Z,114.77
2019-01-24T08:55:51.008Z,115.50
2019-01-24T08:58:19.900Z,113.77
2019-01-24T09:00:49.118Z,110.70
2019-01-24T09:03:18.071Z,105.93
2019-01-24T09:05:47.044Z,111.47
2019-01-24T09:08:15.989Z,104.03
2019-01-24T09:10:44.784Z,109.67
2019-01-24T09:13:13.824Z,116.10
2019-01-24T09:15:42.815Z,116.87
2019-01-24T09:18:11.761Z,115.03
2019-01-24T09:20:40.722Z,116.57
2019-01-24T09:23:09.700Z,116.20
2019-01-24T09:25:38.578Z,117.77
2019-01-24T09:28:14.643Z,116.50
2019-01-24T09:30:38.313Z,116.70
2019-01-24T09:33:07.222Z,113.63
2019-01-24T09:35:36.113Z,114.83
2019-01-24T09:38:05.182Z,109.97
2019-01-24T09:40:34.190Z,96.60
2019-01-24T09:43:03.170Z,102.07
2019-01-24T09:45:32.315Z,96.93
2019-01-24T09:48:01.543Z,95.70
2019-01-24T09:50:30.830Z,99.63
2019-01-24T09:52:59.894Z,108.00
2019-01-24T09:55:28.710Z,108.30
2019-01-24T09:57:57.754Z,109.30
2019-01-24T10:00:31.586Z,102.63
2019-01-24T10:03:00.847Z,107.60
2019-01-24T10:05:29.789Z,98.00
2019-01-24T10:07:58.668Z,118.67
2019-01-24T10:10:27.759Z,112.47
2019-01-24T10:12:57.248Z,116.20
2019-01-24T10:15:26.370Z,116.07
2019-01-24T10:17:55.194Z,110.00
2019-01-24T10:20:25.348Z,114.70
2019-01-24T10:22:54.362Z,113.43
2019-01-24T10:25:31.860Z,114.53
2019-01-24T10:28:00.804Z,116.00
2019-01-24T10:30:30.208Z,108.60
2019-01-24T10:32:59.052Z,112.97
2019-01-24T10:35:27.929Z,114.53
2019-01-24T10:37:56.883Z,117.30
2019-01-24T10:40:27.710Z,115.10
2019-01-24T10:42:56.668Z,112.90
2019-01-24T10:45:25.654Z,113.00
2019-01-24T10:47:54.574Z,114.97
2019-01-24T10:50:24.354Z,113.70
2019-01-24T10:52:53.312Z,116.70
2019-01-24T10:55:24.010Z,116.83
2019-01-24T10:57:53.795Z,116.47
2019-01-24T11:00:37.046Z,112.77
2019-01-24T11:03:07.900Z,112.37
2019-01-24T11:05:37.235Z,117.37
2019-01-24T11:08:06.347Z,95.70
2019-01-24T11:10:35.660Z,103.27
2019-01-24T11:13:04.587Z,99.73
2019-01-24T11:15:33.758Z,95.30
2019-01-24T11:18:02.706Z,110.73
2019-01-24T11:20:34.402Z,115.27
2019-01-24T11:23:03.382Z,107.10
2019-01-24T11:25:32.510Z,108.30
2019-01-24T11:28:01.645Z,115.93
2019-01-24T11:30:30.632Z,106.80
2019-01-24T11:32:59.529Z,109.47
2019-01-24T11:35:30.889Z,109.77
2019-01-24T11:37:59.755Z,114.00
2019-01-24T11:40:28.709Z,118.83
2019-01-24T11:42:57.609Z,117.67
2019-01-24T11:45:29.193Z,114.30
2019-01-24T11:47:58.210Z,111.33
2019-01-24T11:50:27.004Z,110.90
2019-01-24T11:52:55.955Z,113.10
2019-01-24T11:55:25.002Z,113.50
2019-01-24T11:57:53.775Z,106.33
2019-01-24T12:00:36.579Z,107.93
2019-01-24T12:03:05.842Z,109.20
2019-01-24T12:05:34.744Z,105.00
2019-01-24T12:08:03.721Z,106.73
2019-01-24T12:10:32.611Z,101.77
2019-01-24T12:13:01.524Z,104.27
2019-01-24T12:15:30.411Z,97.93
2019-01-24T12:17:59.503Z,96.73
2019-01-24T12:20:28.454Z,98.73
2019-01-24T12:22:57.363Z,102.20
2019-01-24T12:25:26.331Z,105.53
2019-01-24T12:27:55.099Z,95.07
2019-01-24T12:30:28.884Z,103.63
2019-01-24T12:32:58.298Z,110.33
2019-01-24T12:35:27.292Z,108.80
2019-01-24T12:37:56.260Z,111.70
2019-01-24T12:40:25.112Z,109.63
2019-01-24T12:42:54.085Z,106.67
2019-01-24T12:45:25.277Z,106.57
2019-01-24T12:47:54.049Z,106.23
2019-01-24T12:50:22.858Z,101.57
2019-01-24T12:52:51.877Z,112.37
2019-01-24T12:55:20.858Z,112.70
2019-01-24T12:57:49.905Z,101.03
2019-01-24T13:00:21.083Z,103.57
2019-01-24T13:02:50.134Z,109.20
2019-01-24T13:05:18.958Z,106.37
2019-01-24T13:07:48.826Z,97.90
2019-01-24T13:10:19.908Z,92.60
2019-01-24T13:12:48.919Z,94.70
2019-01-24T13:15:18.337Z,110.07
2019-01-24T13:17:47.188Z,111.97
2019-01-24T13:20:17.465Z,107.40
2019-01-24T13:22:46.348Z,111.90
2019-01-24T13:25:20.565Z,112.50
2019-01-24T13:27:50.782Z,112.50
2019-01-24T13:30:21.980Z,101.87
2019-01-24T13:32:50.753Z,103.43
2019-01-24T13:35:19.605Z,105.10
2019-01-24T13:37:48.594Z,104.63
2019-01-24T13:40:19.640Z,101.33
2019-01-24T13:42:48.531Z,101.67
2019-01-24T13:45:19.778Z,105.77
2019-01-24T13:47:48.596Z,96.57
2019-01-24T13:50:17.709Z,93.23
2019-01-24T13:52:46.666Z,100.03
2019-01-24T13:55:15.571Z,97.13
2019-01-24T13:57:44.387Z,95.77
2019-01-24T14:00:18.904Z,96.63
2019-01-24T14:02:49.626Z,95.17
2019-01-24T14:05:18.708Z,94.90
2019-01-24T14:07:47.567Z,94.17
2019-01-24T14:10:16.496Z,92.13
2019-01-24T14:12:45.479Z,98.63
2019-01-24T14:15:15.617Z,111.27
2019-01-24T14:17:44.476Z,104.40
2019-01-24T14:20:15.861Z,100.33
2019-01-24T14:22:44.799Z,106.80
2019-01-24T14:25:17.905Z,104.67
2019-01-24T14:27:46.867Z,101.67
2019-01-24T14:30:19.883Z,98.87
2019-01-24T14:32:48.867Z,99.30
2019-01-24T14:35:17.886Z,96.27
2019-01-24T14:37:46.957Z,94.80
2019-01-24T14:40:15.949Z,97.80
2019-01-24T14:42:44.939Z,104.77
2019-01-24T14:45:16.000Z,101.90
2019-01-24T14:47:44.892Z,99.10
2019-01-24T14:50:16.845Z,105.20
2019-01-24T14:52:45.792Z,101.63
2019-01-24T14:55:14.697Z,98.53
2019-01-24T14:57:43.603Z,96.80
2019-01-24T15:00:22.873Z,107.43
2019-01-24T15:02:51.860Z,95.47
2019-01-24T15:05:20.815Z,100.23
2019-01-24T15:07:49.921Z,107.20
2019-01-24T15:10:19.030Z,105.73
2019-01-24T15:12:47.964Z,103.63
2019-01-24T15:15:16.911Z,106.30
2019-01-24T15:17:46.005Z,108.63
2019-01-24T15:20:15.395Z,100.30
2019-01-24T15:22:44.503Z,105.67
2019-01-24T15:25:13.836Z,107.17
2019-01-24T15:27:44.524Z,97.33
2019-01-24T15:30:16.418Z,105.17
2019-01-24T15:32:45.635Z,102.10
2019-01-24T15:35:14.768Z,103.83
2019-01-24T15:37:44.001Z,99.80
2019-01-24T15:40:18.926Z,100.00
2019-01-24T15:42:47.825Z,97.07
2019-01-24T15:45:18.356Z,102.70
2019-01-24T15:47:47.194Z,105.17
2019-01-24T15:50:17.489Z,106.60
2019-01-24T15:52:46.591Z,107.67
2019-01-24T15:55:15.557Z,116.90
2019-01-24T15:57:44.354Z,114.23
2019-01-24T16:00:16.269Z,119.90
2019-01-24T16:02:45.225Z,122.23
2019-01-24T16:05:14.143Z,122.87
2019-01-24T16:07:43.200Z,123.00
2019-01-24T16:10:13.555Z,122.87
2019-01-24T16:12:42.420Z,118.83
2019-01-24T16:15:14.536Z,123.83
2019-01-24T16:17:43.819Z,123.57
2019-01-24T16:20:15.535Z,120.87
2019-01-24T16:22:44.347Z,123.40
2019-01-24T16:25:14.154Z,122.50
2019-01-24T16:27:43.045Z,120.73
2019-01-24T16:30:20.997Z,118.13
2019-01-24T16:32:49.875Z,124.80
2019-01-24T16:35:19.247Z,120.47
2019-01-24T16:37:48.237Z,128.53
2019-01-24T16:40:18.331Z,125.13
2019-01-24T16:42:47.153Z,126.43
2019-01-24T16:45:21.176Z,122.50
2019-01-24T16:47:50.087Z,132.37
2019-01-24T16:50:19.256Z,121.77
2019-01-24T16:52:48.708Z,122.80
2019-01-24T16:55:17.590Z,116.07
2019-01-24T16:57:47.066Z,121.03
2019-01-24T17:00:27.593Z,114.23
2019-01-24T17:02:56.526Z,120.17
2019-01-24T17:05:25.432Z,120.60
2019-01-24T17:07:54.386Z,118.47
2019-01-24T17:10:23.345Z,126.93
2019-01-24T17:12:52.133Z,123.93
2019-01-24T17:15:21.013Z,126.60
2019-01-24T17:17:50.016Z,123.43
2019-01-24T17:20:21.146Z,122.50
2019-01-24T17:22:50.078Z,117.43
2019-01-24T17:25:19.556Z,121.13
2019-01-24T17:27:48.424Z,123.13
2019-01-24T17:30:19.758Z,125.77
2019-01-24T17:32:48.668Z,119.90
2019-01-24T17:35:17.745Z,126.57
2019-01-24T17:37:46.735Z,126.43
2019-01-24T17:40:18.770Z,126.23
2019-01-24T17:42:47.641Z,129.63
2019-01-24T17:45:16.542Z,129.07
2019-01-24T17:47:45.449Z,124.30
2019-01-24T17:50:14.320Z,124.07
2019-01-24T17:52:43.337Z,118.73
2019-01-24T17:55:15.117Z,125.37
2019-01-24T17:57:43.962Z,126.63
2019-01-24T18:00:16.979Z,122.77
2019-01-24T18:02:45.852Z,127.83
2019-01-24T18:05:14.853Z,126.67
2019-01-24T18:07:43.882Z,123.70
2019-01-24T18:10:15.813Z,127.50
2019-01-24T18:12:44.772Z,118.40
2019-01-24T18:15:16.855Z,114.30
2019-01-24T18:17:45.847Z,115.23
2019-01-24T18:20:18.411Z,123.20
2019-01-24T18:22:48.511Z,117.37
2019-01-24T18:25:17.498Z,120.40
2019-01-24T18:27:46.253Z,118.90
2019-01-24T18:30:17.816Z,118.50
2019-01-24T18:32:46.690Z,106.43
2019-01-24T18:35:15.723Z,123.83
2019-01-24T18:37:44.594Z,122.33
2019-01-24T18:40:16.999Z,123.13
2019-01-24T18:42:46.152Z,107.70
2019-01-24T18:45:17.758Z,119.00
2019-01-24T18:47:46.635Z,118.60
2019-01-24T18:50:18.377Z,117.27
2019-01-24T18:52:47.516Z,115.13
2019-01-24T18:55:16.552Z,103.77
2019-01-24T18:57:46.411Z,106.57
2019-01-24T19:00:19.840Z,103.50
2019-01-24T19:02:48.876Z,105.90
2019-01-24T19:05:17.765Z,106.17
2019-01-24T19:07:46.649Z,107.27
2019-01-24T19:10:15.610Z,103.90
2019-01-24T19:12:44.570Z,104.83
2019-01-24T19:15:15.015Z,106.13
2019-01-24T19:17:43.791Z,109.57
2019-01-24T19:20:13.222Z,103.57
2019-01-24T19:22:42.204Z,104.17
2019-01-24T19:25:11.547Z,107.33
2019-01-24T19:27:40.450Z,107.27
2019-01-24T19:30:17.212Z,109.47
2019-01-24T19:32:46.088Z,115.67
2019-01-24T19:35:15.107Z,111.57
2019-01-24T19:37:44.368Z,107.40
2019-01-24T19:40:14.304Z,105.87
2019-01-24T19:42:43.106Z,106.03
2019-01-24T19:45:15.000Z,114.90
2019-01-24T19:47:43.938Z,103.03
2019-01-24T19:50:14.861Z,102.23
2019-01-24T19:52:43.867Z,102.77
2019-01-24T19:55:12.866Z,106.00
2019-01-24T19:57:41.715Z,105.40
2019-01-24T20:00:13.999Z,101.83
2019-01-24T20:02:42.970Z,104.57
2019-01-24T20:05:12.271Z,104.40
2019-01-24T20:07:41.297Z,103.77
2019-01-24T20:10:12.671Z,101.97
2019-01-24T20:12:41.664Z,104.33
2019-01-24T20:15:12.677Z,104.43
2019-01-24T20:17:41.639Z,106.97
2019-01-24T20:20:11.913Z,108.23
2019-01-24T20:22:40.887Z,108.80
2019-01-24T20:25:12.276Z,120.83
2019-01-24T20:27:41.162Z,107.77
2019-01-24T20:30:18.845Z,105.30
2019-01-24T20:32:47.976Z,104.70
2019-01-24T20:35:19.630Z,101.47
2019-01-24T20:37:48.719Z,116.20
2019-01-24T20:40:17.737Z,110.63
2019-01-24T20:42:46.759Z,109.63
2019-01-24T20:45:15.725Z,112.40
2019-01-24T20:47:44.688Z,112.47
2019-01-24T20:50:13.793Z,107.37
2019-01-24T20:52:42.942Z,103.93
2019-01-24T20:55:12.130Z,113.50
2019-01-24T20:57:41.050Z,113.83
2019-01-24T21:00:15.859Z,116.20
2019-01-24T21:02:44.814Z,115.20
2019-01-24T21:05:15.189Z,111.40
2019-01-24T21:07:44.281Z,105.93
2019-01-24T21:10:15.860Z,111.97
2019-01-24T21:12:44.731Z,103.00
2019-01-24T21:15:14.427Z,118.87
2019-01-24T21:17:43.424Z,103.10
2019-01-24T21:20:15.063Z,100.83
2019-01-24T21:22:43.979Z,103.50
2019-01-24T21:25:13.965Z,104.57
2019-01-24T21:27:42.889Z,106.37
2019-01-24T21:30:15.295Z,111.03
2019-01-24T21:32:44.240Z,102.13
2019-01-24T21:35:13.214Z,115.00
2019-01-24T21:37:42.227Z,120.03
2019-01-24T21:40:12.903Z,118.20
2019-01-24T21:42:42.038Z,117.57
2019-01-24T21:45:13.452Z,114.47
2019-01-24T21:47:42.582Z,116.10
2019-01-24T21:50:13.831Z,116.37
2019-01-24T21:52:42.939Z,108.73
2019-01-24T21:55:12.137Z,117.00
2019-01-24T21:57:41.090Z,119.23
2019-01-24T22:00:11.685Z,115.70
2019-01-24T22:02:40.769Z,120.73
2019-01-24T22:05:10.259Z,118.87
2019-01-24T22:07:39.347Z,114.67
2019-01-24T22:10:10.383Z,110.60
2019-01-24T22:12:39.269Z,111.63
2019-01-24T22:15:11.019Z,115.03
2019-01-24T22:17:40.136Z,108.73
2019-01-24T22:20:09.342Z,115.13
2019-01-24T22:22:38.432Z,116.27
2019-01-24T22:25:10.100Z,105.33
2019-01-24T22:27:39.014Z,117.87
2019-01-24T22:30:11.174Z,114.10
2019-01-24T22:32:40.203Z,113.37
2019-01-24T22:35:09.212Z,122.97
2019-01-24T22:37:38.163Z,119.20
2019-01-24T22:40:08.102Z,120.93
2019-01-24T22:42:37.098Z,122.50
2019-01-24T22:45:06.973Z,121.53
2019-01-24T22:47:35.987Z,113.83
2019-01-24T22:50:05.818Z,109.30
2019-01-24T22:52:34.722Z,115.50
2019-01-24T22:55:03.778Z,112.20
2019-01-24T22:57:32.870Z,124.53
2019-01-24T23:00:01.830Z,114.33
2019-01-24T23:02:31.939Z,107.97
2019-01-24T23:05:00.936Z,117.23
2019-01-24T23:07:29.938Z,113.20
2019-01-24T23:09:58.876Z,115.23
2019-01-24T23:12:27.760Z,114.93
2019-01-24T23:14:56.869Z,112.90
2019-01-24T23:17:25.855Z,122.83
2019-01-24T23:19:54.809Z,121.97
2019-01-24T23:22:23.790Z,126.33
2019-01-24T23:24:52.897Z,125.20
2019-01-24T23:27:21.798Z,117.47
2019-01-24T23:29:50.728Z,123.00
2019-01-24T23:32:19.789Z,120.87
2019-01-24T23:34:48.688Z,120.57
2019-01-24T23:37:17.584Z,117.30
2019-01-24T23:39:51.605Z,117.33
2019-01-24T23:42:17.176Z,118.80
2019-01-24T23:44:46.003Z,114.50
2019-01-24T23:47:15.073Z,115.30
2019-01-24T23:49:44.102Z,109.37
2019-01-24T23:52:13.211Z,104.70
2019-01-24T23:54:42.177Z,102.77
2019-01-24T23:57:11.563Z,108.87
2019-01-24T23:59:40.383Z,102.03
